Time;durP1;ratioP1;P1;durP2;ratioP2;P2;SDS_P1;SDS_P2;PMS_P1;PMS_P2;Temp;Humidity;BMP_temperature;BMP_pressure;BME280_temperature;BME280_humidity;BME280_pressure;Samples;Min_cycle;Max_cycle;Signal;HPM_P1;HPM_P2
2021/12/25 00:03:43;;;;;;;5.18;2.65;;;;;;;-1.22;92.69;98234.81;8408171;28;20500;-81
2021/12/25 00:07:44;;;;;;;6.20;3.08;;;;;;;-1.37;91.79;98249.53;8428746;28;20047;-88
2021/12/25 00:11:45;;;;;;;5.15;2.30;;;;;;;-1.40;90.50;98270.44;8435209;28;20051;-85
2021/12/25 00:15:50;;;;;;;5.25;2.05;;;;;;;-1.63;89.45;98287.41;8460972;27;20127;-84
2021/12/25 00:19:50;;;;;;;5.40;1.40;;;;;;;-1.75;89.88;98292.88;8461713;27;20484;-84
2021/12/25 00:23:51;;;;;;;3.47;1.48;;;;;;;-1.75;89.46;98305.31;8443978;28;20043;-84
2021/12/25 00:32:11;;;;;;;3.85;1.80;;;;;;;-2.11;87.95;98343.00;8462187;27;20051;-82
2021/12/25 00:36:14;;;;;;;5.78;2.20;;;;;;;-2.10;87.58;98339.28;8437382;28;20122;-84
2021/12/25 00:40:17;;;;;;;6.93;2.08;;;;;;;-2.15;87.88;98332.88;8443329;28;20043;-83
2021/12/25 00:44:18;;;;;;;7.78;2.25;;;;;;;-2.21;88.26;98339.16;8461360;28;20505;-83
2021/12/25 00:48:19;;;;;;;6.10;1.80;;;;;;;-2.28;89.27;98333.25;8461070;28;20431;-83
2021/12/25 00:52:20;;;;;;;8.27;1.80;;;;;;;-2.23;89.49;98335.97;8461309;28;20044;-84
2021/12/25 00:56:20;;;;;;;4.45;1.52;;;;;;;-2.13;89.04;98346.69;8460971;27;20074;-83
2021/12/25 01:00:21;;;;;;;4.60;1.33;;;;;;;-2.32;88.59;98374.44;8461343;28;20044;-83
2021/12/25 01:04:22;;;;;;;7.22;1.60;;;;;;;-2.38;88.41;98374.63;8460754;27;20053;-84
2021/12/25 01:08:23;;;;;;;4.00;0.98;;;;;;;-2.34;87.91;98395.06;8476788;27;20028;-84
2021/12/25 01:12:24;;;;;;;4.45;1.23;;;;;;;-2.51;86.36;98396.91;8442406;27;20462;-85
2021/12/25 01:49:57;;;;;;;6.40;2.10;;;;;;;-3.58;84.64;98470.00;8444177;28;20051;-86
2021/12/25 01:53:58;;;;;;;4.88;1.42;;;;;;;-3.65;84.78;98479.91;8441853;28;20416;-84
2021/12/25 01:58:01;;;;;;;5.10;1.10;;;;;;;-3.79;84.50;98483.81;8459659;28;20039;-83
2021/12/25 02:02:02;;;;;;;5.03;1.35;;;;;;;-3.81;84.52;98491.16;8388366;28;20490;-84
2021/12/25 02:06:05;;;;;;;3.92;1.00;;;;;;;-3.93;84.46;98494.63;8387851;28;20090;-83
2021/12/25 02:10:07;;;;;;;5.97;1.60;;;;;;;-4.03;85.03;98499.66;8371464;28;20049;-83
2021/12/25 02:14:07;;;;;;;3.63;1.17;;;;;;;-4.04;84.73;98503.31;8370739;28;20143;-83
2021/12/25 02:22:12;;;;;;;4.80;1.40;;;;;;;-4.19;85.00;98510.88;8387804;28;20189;-84
2021/12/25 02:26:13;;;;;;;2.75;1.17;;;;;;;-4.34;85.31;98513.16;8388333;28;20106;-83
2021/12/25 02:30:14;;;;;;;5.40;1.65;;;;;;;-4.44;85.28;98520.84;8353106;28;20542;-84
2021/12/25 02:34:15;;;;;;;3.53;1.48;;;;;;;-4.47;85.51;98526.53;8396725;28;20516;-82
2021/12/25 02:38:16;;;;;;;5.45;1.20;;;;;;;-4.49;85.35;98539.13;8402733;27;20052;-83
2021/12/25 02:42:17;;;;;;;6.53;1.70;;;;;;;-4.62;85.67;98539.34;8466780;27;20074;-85
2021/12/25 02:46:18;;;;;;;5.18;1.55;;;;;;;-4.60;85.01;98539.91;8468851;27;20039;-83
2021/12/25 02:50:24;;;;;;;7.05;2.35;;;;;;;-4.64;85.13;98549.28;8466188;27;20055;-84
2021/12/25 02:54:25;;;;;;;6.88;1.98;;;;;;;-4.67;85.25;98550.56;8464942;27;20525;-85
2021/12/25 02:58:26;;;;;;;3.72;1.13;;;;;;;-4.71;85.38;98555.47;8446783;27;20070;-85
2021/12/25 03:02:27;;;;;;;4.40;1.40;;;;;;;-4.74;85.69;98550.63;8464815;28;20122;-83
2021/12/25 03:06:28;;;;;;;6.68;1.60;;;;;;;-4.78;85.76;98565.28;8463207;27;20093;-84
2021/12/25 03:10:31;;;;;;;4.57;1.73;;;;;;;-4.82;85.74;98543.06;8464729;27;20063;-83
2021/12/25 03:15:07;;;;;;;11.18;1.60;;;;;;;-4.95;85.86;98553.75;8464288;27;20039;-83
2021/12/25 03:19:04;;;;;;;6.03;1.60;;;;;;;-5.06;85.88;98572.94;8443300;28;20051;-83
2021/12/25 03:23:05;;;;;;;7.45;2.08;;;;;;;-4.98;85.41;98564.75;8464375;27;20370;-84
2021/12/25 03:27:06;;;;;;;5.70;1.40;;;;;;;-5.04;85.27;98560.34;8445063;28;20441;-83
2021/12/25 03:31:15;;;;;;;7.10;1.63;;;;;;;-5.10;85.49;98561.25;8444839;28;20063;-84
2021/12/25 03:35:16;;;;;;;6.85;2.00;;;;;;;-5.15;85.64;98574.25;8461368;28;20126;-84
2021/12/25 03:39:16;;;;;;;6.65;1.73;;;;;;;-5.18;85.80;98569.44;8446426;27;20039;-86
2021/12/25 03:43:19;;;;;;;6.80;1.60;;;;;;;-5.20;85.65;98576.75;8445538;27;20112;-84
2021/12/25 03:47:39;;;;;;;6.90;2.05;;;;;;;-5.21;85.36;98580.41;8444990;28;20039;-85
2021/12/25 04:00:27;;;;;;;5.68;2.47;;;;;;;-5.37;85.13;98596.78;8464054;27;20046;-85
2021/12/25 04:04:37;;;;;;;6.05;2.22;;;;;;;-5.45;85.45;98599.72;8463424;27;20047;-83
2021/12/25 04:08:43;;;;;;;7.18;1.88;;;;;;;-5.46;85.26;98600.72;8445720;27;20138;-84
2021/12/25 04:12:44;;;;;;;5.13;1.63;;;;;;;-5.55;85.13;98611.50;8463923;27;20048;-84
2021/12/25 04:16:45;;;;;;;9.18;1.80;;;;;;;-5.60;85.47;98634.22;8443284;28;20404;-84
2021/12/25 04:20:46;;;;;;;5.72;1.92;;;;;;;-5.62;85.69;98641.56;8463043;27;20071;-85
2021/12/25 04:24:49;;;;;;;6.10;1.75;;;;;;;-5.72;85.90;98628.91;8463754;27;20043;-84
2021/12/25 04:33:28;;;;;;;10.63;2.53;;;;;;;-5.76;85.96;98635.59;8462131;28;20070;-87
2021/12/25 05:07:20;;;;;;;6.93;1.80;;;;;;;-6.09;85.43;98687.66;8465618;27;20614;-87
2021/12/25 05:11:22;;;;;;;8.88;2.10;;;;;;;-6.18;85.73;98704.69;8469702;27;20107;-86
2021/12/25 05:15:22;;;;;;;7.90;1.77;;;;;;;-6.28;85.61;98709.59;8450259;28;20054;-84
2021/12/25 05:19:25;;;;;;;10.45;2.15;;;;;;;-6.42;85.50;98709.66;8464774;28;20393;-84
2021/12/25 05:23:25;;;;;;;8.93;2.90;;;;;;;-6.58;85.50;98720.66;8501901;27;20118;-85
2021/12/25 05:27:26;;;;;;;8.85;2.40;;;;;;;-6.72;85.54;98711.22;8472904;27;20059;-86
2021/12/25 05:31:29;;;;;;;8.57;2.05;;;;;;;-6.87;85.52;98710.63;8458278;27;20047;-84
2021/12/25 05:35:30;;;;;;;9.30;2.20;;;;;;;-6.91;85.83;98709.44;8469957;27;20035;-84
2021/12/25 05:39:31;;;;;;;10.82;2.45;;;;;;;-7.00;85.50;98718.56;8470152;27;20122;-83
2021/12/25 05:43:32;;;;;;;12.30;3.15;;;;;;;-7.20;84.53;98736.16;8460921;28;20381;-84
2021/12/25 05:47:33;;;;;;;7.95;2.55;;;;;;;-7.31;84.27;98735.78;8480564;27;20043;-83
2021/12/25 05:51:34;;;;;;;12.32;3.30;;;;;;;-7.41;84.30;98751.13;8450351;27;20400;-83
2021/12/25 05:55:34;;;;;;;8.50;3.25;;;;;;;-7.52;84.14;98754.34;8453163;27;20120;-84
2021/12/25 05:59:35;;;;;;;11.27;3.00;;;;;;;-7.58;84.04;98765.63;8442861;28;20450;-84
2021/12/25 06:03:36;;;;;;;18.60;5.20;;;;;;;-7.67;84.22;98757.13;8437268;28;20169;-83
2021/12/25 06:07:37;;;;;;;25.38;7.40;;;;;;;-7.71;84.54;98770.84;8446774;28;20747;-84
2021/12/25 06:11:38;;;;;;;19.98;6.07;;;;;;;-7.76;84.43;98768.00;8480741;27;20055;-84
2021/12/25 06:15:39;;;;;;;24.02;7.13;;;;;;;-7.82;83.89;98768.81;8462175;27;20051;-84
2021/12/25 06:19:40;;;;;;;38.80;10.95;;;;;;;-7.89;84.08;98778.50;8485845;27;20118;-84
2021/12/25 06:23:41;;;;;;;40.78;10.15;;;;;;;-7.95;83.65;98774.03;8472786;27;20093;-84
2021/12/25 06:27:42;;;;;;;35.22;11.57;;;;;;;-8.06;83.65;98783.28;8460743;28;20127;-84
2021/12/25 06:31:42;;;;;;;42.20;10.80;;;;;;;-8.16;83.25;98788.91;8484535;27;20464;-84
2021/12/25 06:35:43;;;;;;;37.67;10.30;;;;;;;-8.26;82.58;98783.22;8474187;27;20043;-85
2021/12/25 06:39:47;;;;;;;33.05;9.43;;;;;;;-8.34;82.37;98786.03;8452054;28;20047;-85
2021/12/25 06:43:48;;;;;;;31.77;7.88;;;;;;;-8.44;81.92;98801.31;8435017;27;20048;-83
2021/12/25 06:47:49;;;;;;;22.75;6.38;;;;;;;-8.47;82.17;98806.94;8451021;28;20126;-84
2021/12/25 06:51:51;;;;;;;32.55;7.78;;;;;;;-8.59;81.97;98818.94;8460247;27;20081;-84
2021/12/25 06:55:52;;;;;;;23.70;6.03;;;;;;;-8.67;81.73;98826.97;8406510;28;20059;-84
2021/12/25 06:59:52;;;;;;;17.33;5.50;;;;;;;-8.67;82.25;98821.75;8398221;28;20052;-85
2021/12/25 07:03:53;;;;;;;19.52;4.70;;;;;;;-8.68;81.87;98825.34;8401474;28;20044;-86
2021/12/25 07:07:54;;;;;;;15.60;5.45;;;;;;;-8.70;82.07;98827.34;8419616;28;20572;-86
2021/12/25 07:11:55;;;;;;;22.10;6.00;;;;;;;-8.70;82.05;98832.59;8400134;28;20052;-85
2021/12/25 07:15:55;;;;;;;15.88;5.20;;;;;;;-8.65;82.09;98836.25;8386087;28;20087;-86
2021/12/25 07:19:56;;;;;;;14.98;5.72;;;;;;;-8.64;81.77;98837.88;8396984;28;20064;-85
2021/12/25 07:23:57;;;;;;;25.48;8.65;;;;;;;-8.67;81.69;98840.06;8413606;28;20048;-86
2021/12/25 07:27:58;;;;;;;22.42;6.32;;;;;;;-8.59;81.99;98840.72;8442033;28;20059;-86
2021/12/25 07:31:59;;;;;;;20.20;5.80;;;;;;;-8.67;81.43;98837.44;8442478;28;20132;-86
2021/12/25 07:36:00;;;;;;;23.27;7.78;;;;;;;-8.58;81.20;98846.75;8436547;28;20066;-86
2021/12/25 07:40:03;;;;;;;25.65;7.07;;;;;;;-8.48;81.31;98849.84;8449185;28;20048;-85
2021/12/25 07:44:04;;;;;;;23.98;7.32;;;;;;;-8.45;80.98;98852.06;8418767;28;20115;-86
2021/12/25 07:48:05;;;;;;;22.83;7.35;;;;;;;-8.34;81.28;98864.59;8450541;28;20048;-84
2021/12/25 07:52:06;;;;;;;21.17;7.38;;;;;;;-8.19;80.95;98857.38;8449201;28;20477;-85
2021/12/25 07:56:07;;;;;;;22.63;6.80;;;;;;;-8.12;80.67;98853.00;8457817;28;20059;-86
2021/12/25 08:00:10;;;;;;;20.58;6.82;;;;;;;-7.97;80.58;98865.13;8446490;28;20044;-83
2021/12/25 08:04:10;;;;;;;19.85;6.47;;;;;;;-7.84;80.52;98876.50;8374713;28;20132;-83
2021/12/25 08:08:12;;;;;;;21.52;6.97;;;;;;;-7.72;80.11;98879.38;8363506;28;20053;-83
2021/12/25 08:12:13;;;;;;;18.77;6.80;;;;;;;-7.64;80.44;98881.81;8356139;28;20063;-83
2021/12/25 08:16:14;;;;;;;23.23;7.25;;;;;;;-7.48;80.53;98881.44;8385169;28;20127;-83
2021/12/25 08:20:15;;;;;;;23.50;8.18;;;;;;;-7.31;80.83;98887.94;8363676;28;20103;-83
2021/12/25 08:24:17;;;;;;;25.05;9.75;;;;;;;-7.13;80.42;98889.16;8346440;28;20067;-82
2021/12/25 08:28:18;;;;;;;29.17;10.70;;;;;;;-6.95;80.75;98894.63;8360418;28;20140;-81
2021/12/25 08:32:19;;;;;;;35.13;12.70;;;;;;;-6.79;80.54;98886.34;8361648;28;20079;-82
2021/12/25 08:36:20;;;;;;;42.88;16.02;;;;;;;-6.62;80.60;98892.81;8400982;28;20480;-81
2021/12/25 08:40:23;;;;;;;34.08;12.65;;;;;;;-6.44;80.54;98900.84;8415322;28;20109;-81
2021/12/25 08:44:36;;;;;;;42.67;16.10;;;;;;;-6.24;80.77;98894.78;8430443;28;20139;-80
2021/12/25 08:48:37;;;;;;;51.08;15.90;;;;;;;-6.02;80.72;98903.97;8427880;28;20135;-81
2021/12/25 08:52:38;;;;;;;50.40;16.25;;;;;;;-5.82;80.74;98909.97;8443643;27;20048;-82
2021/12/25 08:56:39;;;;;;;47.80;16.52;;;;;;;-5.66;80.48;98920.00;8428889;28;20469;-82
2021/12/25 09:00:40;;;;;;;38.20;12.90;;;;;;;-5.56;80.90;98920.38;8430954;28;20082;-82
2021/12/25 09:04:43;;;;;;;36.38;10.68;;;;;;;-5.41;80.52;98921.94;8429660;28;20728;-82
2021/12/25 09:08:44;;;;;;;25.27;8.32;;;;;;;-5.26;80.81;98930.34;8432608;28;20540;-82
2021/12/25 09:12:46;;;;;;;24.75;7.72;;;;;;;-5.07;80.81;98924.16;8445336;27;20113;-82
2021/12/25 09:16:47;;;;;;;22.20;6.65;;;;;;;-4.86;80.75;98926.44;8461387;27;20521;-81
2021/12/25 09:20:48;;;;;;;16.73;3.83;;;;;;;-4.62;79.88;98926.66;8451387;28;20104;-81
2021/12/25 09:24:48;;;;;;;20.38;5.25;;;;;;;-4.59;79.93;98921.75;8428432;28;20048;-83
2021/12/25 09:28:51;;;;;;;17.15;4.72;;;;;;;-4.45;78.99;98927.75;8486421;27;20046;-82
2021/12/25 09:32:53;;;;;;;13.63;4.30;;;;;;;-4.37;79.10;98924.81;8400577;28;20047;-82
2021/12/25 09:36:54;;;;;;;10.40;3.83;;;;;;;-4.27;79.07;98922.50;8464731;27;20051;-82
2021/12/25 09:40:56;;;;;;;11.25;4.03;;;;;;;-4.32;79.02;98927.59;8469493;27;20046;-83
2021/12/25 09:44:57;;;;;;;16.40;4.72;;;;;;;-4.29;79.73;98921.91;8461912;28;20051;-82
2021/12/25 09:48:58;;;;;;;13.60;3.55;;;;;;;-4.28;79.91;98934.06;8446255;27;20126;-82
2021/12/25 09:52:59;;;;;;;7.07;3.40;;;;;;;-4.27;79.63;98931.22;8440332;27;20130;-82
2021/12/25 09:57:00;;;;;;;11.32;3.65;;;;;;;-4.13;80.08;98931.91;8465761;27;20115;-82
2021/12/25 10:01:01;;;;;;;14.35;4.20;;;;;;;-4.17;79.79;98940.44;8431028;28;20734;-82
2021/12/25 10:05:02;;;;;;;12.40;3.47;;;;;;;-4.16;80.13;98942.88;8463321;28;20056;-82
2021/12/25 10:09:30;;;;;;;12.32;3.97;;;;;;;-4.04;79.89;98938.50;8471771;28;20056;-83
2021/12/25 10:13:38;;;;;;;10.38;3.55;;;;;;;-4.06;79.91;98940.53;8326587;28;20107;-82
2021/12/25 10:17:51;;;;;;;11.40;3.65;;;;;;;-4.03;80.15;98929.56;8319111;28;20089;-82
2021/12/25 10:22:07;;;;;;;13.75;3.47;;;;;;;-4.11;80.30;98921.94;8306016;28;20054;-83
2021/12/25 10:26:09;;;;;;;11.02;3.22;;;;;;;-4.25;80.32;98923.09;8284428;28;20057;-82
2021/12/25 10:30:10;;;;;;;8.00;3.13;;;;;;;-4.24;81.20;98924.72;8324496;28;20127;-82
2021/12/25 10:34:18;;;;;;;8.45;3.40;;;;;;;-4.12;80.55;98915.03;8323752;28;20060;-82
2021/12/25 10:38:21;;;;;;;13.48;4.00;;;;;;;-4.15;79.82;98912.84;8310575;28;20573;-83
2021/12/25 10:42:23;;;;;;;11.95;3.85;;;;;;;-4.10;80.06;98905.09;8308676;28;20064;-82
2021/12/25 10:46:24;;;;;;;10.32;3.85;;;;;;;-4.12;79.49;98912.41;8310775;28;20564;-83
2021/12/25 10:50:25;;;;;;;10.40;3.58;;;;;;;-4.23;79.96;98926.31;8417704;28;20512;-84
2021/12/25 10:54:43;;;;;;;12.07;4.15;;;;;;;-4.10;80.16;98915.63;8390460;28;20051;-83
2021/12/25 10:58:44;;;;;;;15.13;4.30;;;;;;;-4.13;79.87;98916.09;8387640;28;20048;-84
2021/12/25 11:02:48;;;;;;;7.68;3.50;;;;;;;-4.33;80.33;98915.44;8358685;28;20100;-83
2021/12/25 11:06:49;;;;;;;14.82;4.82;;;;;;;-4.38;80.62;98923.19;8377011;28;20048;-83
2021/12/25 11:11:00;;;;;;;12.15;3.53;;;;;;;-4.48;80.96;98914.97;8394397;28;20096;-83
2021/12/25 11:15:21;;;;;;;8.60;3.28;;;;;;;-4.48;81.54;98928.16;8392848;28;20055;-83
2021/12/25 11:19:32;;;;;;;12.85;3.80;;;;;;;-4.43;81.69;98930.94;8374260;28;20049;-83
2021/12/25 11:23:33;;;;;;;12.82;4.28;;;;;;;-4.32;81.51;98932.88;8400095;28;20057;-84
2021/12/25 11:27:34;;;;;;;11.15;3.90;;;;;;;-4.21;81.52;98945.34;8378475;28;20067;-84
2021/12/25 11:31:35;;;;;;;13.63;4.40;;;;;;;-4.08;81.46;98934.69;8364813;28;20051;-83
2021/12/25 11:35:37;;;;;;;12.82;4.13;;;;;;;-4.00;81.36;98921.19;8440338;27;20059;-83
2021/12/25 11:39:38;;;;;;;15.95;5.03;;;;;;;-3.99;81.25;98922.81;8473521;27;20493;-83
2021/12/25 11:43:42;;;;;;;19.23;5.13;;;;;;;-3.96;81.01;98917.09;8466973;28;20047;-83
2021/12/25 11:47:51;;;;;;;13.52;4.65;;;;;;;-3.76;81.04;98931.91;8466773;28;20136;-84
2021/12/25 11:51:52;;;;;;;16.33;4.95;;;;;;;-3.72;80.79;98922.53;8445638;28;20039;-85
2021/12/25 12:00:33;;;;;;;10.43;3.58;;;;;;;-3.64;80.36;98914.28;8381050;28;20560;-83
2021/12/25 12:04:35;;;;;;;13.85;4.13;;;;;;;-3.59;80.35;98917.06;8385991;28;20167;-85
2021/12/25 12:08:54;;;;;;;11.88;3.83;;;;;;;-3.76;80.49;98922.16;8376405;28;20688;-84
2021/12/25 12:13:20;;;;;;;15.68;5.05;;;;;;;-3.80;80.77;98930.72;8403263;28;20060;-84
2021/12/25 12:17:21;;;;;;;9.95;3.65;;;;;;;-3.69;80.60;98930.00;8394737;28;20055;-84
2021/12/25 12:21:23;;;;;;;15.88;3.80;;;;;;;-3.62;80.03;98922.81;8360057;28;20047;-83
2021/12/25 12:29:43;;;;;;;9.25;2.92;;;;;;;-3.73;79.88;98942.03;8470511;27;20051;-83
2021/12/25 12:33:44;;;;;;;11.23;3.65;;;;;;;-3.79;80.14;98932.34;8444420;28;20040;-83
2021/12/25 12:37:46;;;;;;;8.45;2.88;;;;;;;-3.87;80.76;98939.53;8473271;27;20488;-84
2021/12/25 12:41:52;;;;;;;12.63;4.07;;;;;;;-3.97;80.64;98941.88;8446943;27;20503;-85
2021/12/25 12:45:53;;;;;;;9.13;3.08;;;;;;;-4.02;80.74;98948.84;8462534;27;20471;-85
2021/12/25 12:49:58;;;;;;;10.95;3.40;;;;;;;-3.92;80.91;98949.94;8463069;28;20060;-84
2021/12/25 12:53:59;;;;;;;8.77;3.20;;;;;;;-3.90;81.06;98957.63;8470393;27;20138;-84
2021/12/25 12:58:16;;;;;;;15.05;3.22;;;;;;;-3.92;81.05;98955.22;8469313;27;20105;-83
2021/12/25 13:02:19;;;;;;;8.68;3.42;;;;;;;-3.93;81.23;98953.59;8444804;27;20051;-83
2021/12/25 13:06:20;;;;;;;8.38;3.60;;;;;;;-4.01;81.21;98951.25;8446349;27;20396;-84
2021/12/25 13:14:33;;;;;;;9.85;2.95;;;;;;;-3.93;81.72;98958.06;8472448;27;20059;-83
2021/12/25 13:18:36;;;;;;;6.72;2.97;;;;;;;-3.81;81.57;98960.78;8478197;27;20043;-84
2021/12/25 13:22:37;;;;;;;9.70;3.63;;;;;;;-3.80;81.76;98959.75;8467443;27;20048;-84
2021/12/25 13:26:46;;;;;;;12.90;4.05;;;;;;;-3.76;81.62;98968.84;8445246;28;20050;-84
2021/12/25 13:30:49;;;;;;;14.93;3.97;;;;;;;-3.81;81.76;98966.06;8462237;28;20055;-84
2021/12/25 13:34:50;;;;;;;10.63;3.70;;;;;;;-3.87;81.78;98973.84;8460940;28;20561;-84
2021/12/25 13:39:12;;;;;;;9.50;3.88;;;;;;;-4.01;81.70;98988.16;8444806;28;20173;-84
2021/12/25 13:43:13;;;;;;;15.77;4.85;;;;;;;-4.14;82.17;98988.31;8457509;28;20054;-84
2021/12/25 13:47:13;;;;;;;7.95;4.00;;;;;;;-4.19;81.95;98980.25;8473667;27;20115;-86
2021/12/25 13:51:14;;;;;;;13.70;4.07;;;;;;;-4.30;82.20;98983.56;8467653;27;20408;-83
2021/12/25 13:55:29;;;;;;;8.57;3.58;;;;;;;-4.42;82.73;98985.28;8460715;28;20047;-83
2021/12/25 13:59:31;;;;;;;12.80;3.78;;;;;;;-4.48;83.16;98986.16;8439742;28;20050;-84
2021/12/25 14:03:32;;;;;;;11.68;3.78;;;;;;;-4.54;83.19;98987.00;8442961;28;20435;-83
2021/12/25 14:07:33;;;;;;;13.00;3.95;;;;;;;-4.64;83.24;98991.94;8444120;28;20051;-83
2021/12/25 14:11:33;;;;;;;13.10;4.07;;;;;;;-4.75;83.55;98996.88;8459600;28;20120;-83
2021/12/25 14:15:34;;;;;;;10.10;3.88;;;;;;;-4.83;83.49;98994.50;8462061;28;20046;-84
2021/12/25 14:19:36;;;;;;;10.25;3.67;;;;;;;-4.96;83.85;99005.09;8443952;28;20067;-83
2021/12/25 14:23:37;;;;;;;10.65;3.30;;;;;;;-5.03;83.84;98999.09;8426757;28;20478;-83
2021/12/25 14:27:38;;;;;;;13.48;3.13;;;;;;;-5.17;84.08;99013.31;8469064;28;20063;-85
2021/12/25 14:31:40;;;;;;;10.02;3.38;;;;;;;-5.32;84.01;99004.88;8469849;28;20446;-84
2021/12/25 14:35:41;;;;;;;14.35;3.30;;;;;;;-5.53;84.26;99006.78;8467483;27;20492;-84
2021/12/25 14:39:42;;;;;;;7.80;3.15;;;;;;;-5.69;84.12;99004.59;8398579;28;20058;-84
2021/12/25 14:43:43;;;;;;;11.90;3.22;;;;;;;-5.84;84.50;99017.19;8475376;27;20134;-84
2021/12/25 14:47:52;;;;;;;7.28;2.80;;;;;;;-6.03;84.02;99007.56;8468798;27;20048;-85
2021/12/25 14:51:59;;;;;;;10.40;2.83;;;;;;;-6.18;83.93;99020.09;8451061;28;20043;-84
2021/12/25 14:56:02;;;;;;;;;;;;;;;-6.57;82.90;99021.72;8448660;28;20043;-83
2021/12/25 15:00:04;;;;;;;55.53;12.95;;;;;;;-6.71;83.46;99025.31;8450772;27;19949;-83
2021/12/25 15:04:38;;;;;;;58.33;14.15;;;;;;;-6.82;83.27;99033.81;8416797;28;20503;-84
2021/12/25 15:08:39;;;;;;;109.07;24.05;;;;;;;-6.98;82.97;99028.91;8360301;28;20418;-84
2021/12/25 15:12:41;;;;;;;66.10;16.85;;;;;;;-7.17;82.30;99034.91;8350497;28;20048;-83
2021/12/25 15:16:48;;;;;;;90.95;24.38;;;;;;;-7.29;82.47;99040.69;8356798;28;20530;-84
2021/12/25 15:21:11;;;;;;;127.10;30.90;;;;;;;-7.36;82.79;99037.25;8319052;28;20048;-83
2021/12/25 15:25:18;;;;;;;103.18;25.98;;;;;;;-7.45;82.56;99043.66;8327226;28;20144;-82
2021/12/25 15:29:20;;;;;;;99.60;26.07;;;;;;;-7.54;82.43;99042.22;8348012;28;20144;-84
2021/12/25 15:33:21;;;;;;;91.45;24.63;;;;;;;-7.66;81.91;99030.63;8347449;28;20045;-85
2021/12/25 15:37:34;;;;;;;91.95;23.27;;;;;;;-7.89;81.28;99040.59;8321943;28;20057;-85
2021/12/25 15:41:34;;;;;;;89.70;21.23;;;;;;;-7.95;81.22;99042.19;8350710;28;20146;-85
2021/12/25 15:45:37;;;;;;;79.10;18.63;;;;;;;-8.03;81.15;99038.88;8459589;27;20097;-88
2021/12/25 15:49:37;;;;;;;53.92;15.30;;;;;;;-8.11;80.96;99043.28;8441692;28;20039;-88
2021/12/25 15:53:39;;;;;;;52.47;14.07;;;;;;;-8.19;80.77;99040.78;8476918;27;20120;-87
2021/12/25 15:57:40;;;;;;;61.05;16.52;;;;;;;-8.27;80.38;99048.78;8463874;27;20052;-87
2021/12/25 16:01:41;;;;;;;65.35;17.50;;;;;;;-8.36;80.55;99044.72;8465029;27;20497;-88
2021/12/25 16:05:43;;;;;;;93.90;26.85;;;;;;;-8.40;80.54;99043.47;8444678;28;20105;-83
2021/12/25 16:09:44;;;;;;;95.82;26.20;;;;;;;-8.45;80.81;99045.84;8479978;27;20527;-86
2021/12/25 16:13:45;;;;;;;86.13;25.17;;;;;;;-8.57;80.26;99047.38;8465740;27;20047;-84
2021/12/25 16:17:46;;;;;;;91.22;25.05;;;;;;;-8.75;79.86;99045.19;8463472;28;20079;-84
2021/12/25 16:21:47;;;;;;;77.45;22.33;;;;;;;-8.79;80.01;99048.34;8481028;27;20110;-84
2021/12/25 16:25:50;;;;;;;76.18;21.27;;;;;;;-8.82;80.32;99053.94;8486765;27;20058;-86
2021/12/25 16:29:50;;;;;;;54.10;15.82;;;;;;;-8.95;79.79;99048.59;8447862;27;20054;-86
2021/12/25 16:33:51;;;;;;;52.53;16.02;;;;;;;-8.99;79.42;99059.41;8426955;28;20154;-88
2021/12/25 16:37:52;;;;;;;57.08;17.48;;;;;;;-9.02;79.57;99065.03;8460161;28;20036;-88
2021/12/25 16:41:53;;;;;;;52.90;16.55;;;;;;;-9.08;78.98;99064.94;8464456;28;20040;-85
2021/12/25 16:45:54;;;;;;;52.17;15.73;;;;;;;-9.15;79.17;99070.13;8462567;28;20046;-86
2021/12/25 16:49:55;;;;;;;32.15;12.07;;;;;;;-9.17;79.16;99077.31;8474875;27;20071;-85
2021/12/25 16:53:55;;;;;;;41.30;13.15;;;;;;;-9.24;79.10;99084.28;8459672;27;20035;-85
2021/12/25 16:57:57;;;;;;;39.63;12.70;;;;;;;-9.35;78.44;99079.50;8476039;27;20135;-85
2021/12/25 17:01:58;;;;;;;37.67;13.23;;;;;;;-9.38;78.90;99085.13;8462984;27;20059;-85
2021/12/25 17:05:59;;;;;;;32.90;11.02;;;;;;;-9.43;78.63;99082.22;8464427;27;20040;-85
2021/12/25 17:10:00;;;;;;;48.55;13.18;;;;;;;-9.49;78.49;99090.78;8463584;27;20449;-85
2021/12/25 17:14:02;;;;;;;34.65;12.48;;;;;;;-9.48;78.71;99100.25;8445794;28;20067;-84
2021/12/25 17:18:03;;;;;;;37.10;12.45;;;;;;;-9.53;78.67;99097.38;8441138;27;20047;-84
2021/12/25 17:22:04;;;;;;;34.72;11.00;;;;;;;-9.60;78.23;99101.69;8462402;27;20482;-84
2021/12/25 17:26:05;;;;;;;29.13;8.50;;;;;;;-9.61;78.53;99102.69;8464550;27;20039;-84
2021/12/25 17:30:07;;;;;;;24.42;8.55;;;;;;;-9.60;78.67;99106.94;8459694;28;20054;-83
2021/12/25 17:34:08;;;;;;;22.00;7.57;;;;;;;-9.67;78.41;99100.78;8443153;28;20044;-83
2021/12/25 17:38:09;;;;;;;23.30;6.82;;;;;;;-9.74;78.27;99107.75;8461143;28;20062;-84
2021/12/25 17:42:10;;;;;;;19.30;6.65;;;;;;;-9.82;78.06;99109.44;8443258;28;20044;-83
2021/12/25 17:46:12;;;;;;;19.38;5.25;;;;;;;-9.88;77.97;99099.69;8460307;27;20081;-83
2021/12/25 17:50:17;;;;;;;13.55;5.03;;;;;;;-9.91;78.22;99115.72;8459821;28;20069;-83
2021/12/25 17:54:18;;;;;;;13.95;4.78;;;;;;;-9.89;78.09;99119.00;8458481;28;20036;-83
2021/12/25 17:58:20;;;;;;;6.75;3.05;;;;;;;-9.89;78.08;99119.00;8445521;28;20042;-83
2021/12/25 18:02:21;;;;;;;7.05;2.75;;;;;;;-9.90;78.48;99127.81;8462820;28;20064;-84
2021/12/25 18:06:23;;;;;;;10.98;2.50;;;;;;;-9.89;78.17;99123.41;8459325;28;20051;-84
2021/12/25 18:10:24;;;;;;;8.73;3.33;;;;;;;-9.91;78.13;99133.22;8437331;27;20177;-83
2021/12/25 18:14:25;;;;;;;11.00;3.75;;;;;;;-9.94;78.37;99131.75;8445627;28;20059;-83
2021/12/25 18:18:27;;;;;;;14.13;5.03;;;;;;;-9.96;78.13;99128.53;8434535;28;20063;-82
2021/12/25 18:22:28;;;;;;;23.92;5.72;;;;;;;-10.00;78.56;99132.47;8416153;28;20079;-83
2021/12/25 18:26:29;;;;;;;19.50;4.32;;;;;;;-10.00;78.22;99132.47;8402474;28;20143;-82
2021/12/25 18:30:30;;;;;;;13.57;4.30;;;;;;;-10.04;77.95;99128.56;8437754;28;20058;-83
2021/12/25 18:34:32;;;;;;;11.15;3.97;;;;;;;-10.12;77.99;99128.66;8438141;28;20048;-82
2021/12/25 18:38:33;;;;;;;9.70;2.55;;;;;;;-10.13;77.95;99127.03;8437371;28;20070;-83
2021/12/25 18:42:34;;;;;;;7.38;2.53;;;;;;;-10.15;78.07;99134.22;8432554;28;20957;-83
2021/12/25 18:46:35;;;;;;;4.88;2.30;;;;;;;-10.22;78.22;99138.56;8437043;28;20135;-82
2021/12/25 18:50:40;;;;;;;8.20;2.72;;;;;;;-10.29;77.97;99148.06;8437745;28;20044;-82
2021/12/25 18:54:41;;;;;;;7.30;2.03;;;;;;;-10.29;78.08;99142.84;8436360;28;20040;-82
2021/12/25 18:58:42;;;;;;;10.02;2.63;;;;;;;-10.28;78.11;99134.03;8440463;28;20147;-82
2021/12/25 19:02:43;;;;;;;7.25;2.00;;;;;;;-10.30;78.01;99141.22;8416221;28;20458;-82
2021/12/25 19:06:45;;;;;;;6.85;1.88;;;;;;;-10.30;78.13;99130.78;8436506;28;20615;-82
2021/12/25 19:10:46;;;;;;;5.10;1.95;;;;;;;-10.31;78.29;99135.19;8444393;28;20044;-82
2021/12/25 19:14:49;;;;;;;4.05;2.10;;;;;;;-10.31;77.70;99134.41;8469449;27;20062;-80
2021/12/25 19:18:50;;;;;;;12.13;3.72;;;;;;;-10.37;77.91;99135.09;8468624;27;20629;-82
2021/12/25 19:22:53;;;;;;;8.10;3.17;;;;;;;-10.45;77.67;99132.53;8466693;27;20069;-82
2021/12/25 19:27:14;;;;;;;14.60;3.97;;;;;;;-10.47;77.91;99137.13;8466283;27;20131;-83
2021/12/25 19:31:15;;;;;;;11.20;3.40;;;;;;;-10.44;78.25;99144.59;8422090;28;20083;-82
2021/12/25 19:35:16;;;;;;;9.55;3.72;;;;;;;-10.48;78.24;99148.53;8423267;28;20353;-83
2021/12/25 19:39:18;;;;;;;7.80;3.53;;;;;;;-10.48;78.20;99161.59;8391400;28;20048;-82
2021/12/25 19:43:19;;;;;;;7.53;2.92;;;;;;;-10.50;78.38;99156.53;8407707;28;20131;-83
2021/12/25 19:47:20;;;;;;;6.78;2.97;;;;;;;-10.52;77.91;99162.94;8422301;28;20066;-83
2021/12/25 19:51:41;;;;;;;9.38;2.67;;;;;;;-10.53;78.23;99172.56;8424305;28;20693;-82
2021/12/25 19:55:45;;;;;;;12.63;3.40;;;;;;;-10.57;78.19;99171.25;8388384;28;20048;-83
2021/12/25 19:59:47;;;;;;;15.52;4.93;;;;;;;-10.64;78.10;99174.75;8387656;28;20413;-83
2021/12/25 20:03:50;;;;;;;14.35;4.07;;;;;;;-10.68;77.78;99175.06;8424980;28;20047;-82
2021/12/25 20:07:53;;;;;;;15.95;4.05;;;;;;;-10.66;78.00;99174.09;8418964;28;20056;-82
2021/12/25 20:11:55;;;;;;;10.70;3.25;;;;;;;-10.70;78.03;99177.06;8405927;28;20056;-83
2021/12/25 20:15:59;;;;;;;10.98;3.25;;;;;;;-10.77;77.71;99183.94;8422973;28;20109;-83
2021/12/25 20:20:00;;;;;;;10.10;2.65;;;;;;;-10.76;77.81;99182.94;8423031;28;20060;-82
2021/12/25 20:24:02;;;;;;;9.07;3.58;;;;;;;-10.78;77.88;99184.91;8406968;28;20048;-81
2021/12/25 20:28:03;;;;;;;17.35;4.13;;;;;;;-10.79;77.85;99183.31;8439838;27;20055;-81
2021/12/25 20:32:05;;;;;;;12.02;3.72;;;;;;;-10.81;77.89;99182.66;8444180;27;20048;-82